createdAt,value
2023-02-27T00:00:48.262Z,99863.91
2023-02-27T00:03:18.958Z,99868.28
2023-02-27T00:05:45.629Z,99862.94
2023-02-27T00:08:12.182Z,99867.00
2023-02-27T00:10:38.724Z,99872.56
2023-02-27T00:13:05.569Z,99863.97
2023-02-27T00:15:32.280Z,99866.94
2023-02-27T00:17:59.861Z,99863.56
2023-02-27T00:20:26.942Z,99869.53
2023-02-27T00:22:56.447Z,99864.94
2023-02-27T00:25:22.992Z,99860.56
2023-02-27T00:27:49.436Z,99859.41
2023-02-27T00:30:16.461Z,99864.28
2023-02-27T00:32:43.860Z,99864.28
2023-02-27T00:35:12.562Z,99860.69
2023-02-27T00:37:39.929Z,99860.78
2023-02-27T00:40:11.249Z,99866.78
2023-02-27T00:42:37.831Z,99860.19
2023-02-27T00:45:08.774Z,99855.28
2023-02-27T00:47:35.759Z,99866.25
2023-02-27T00:50:02.388Z,99869.41
2023-02-27T00:52:35.689Z,99866.81
2023-02-27T00:55:02.424Z,99861.72
2023-02-27T00:57:28.999Z,99868.13
2023-02-27T00:59:55.475Z,99859.44
2023-02-27T01:02:22.362Z,99864.63
2023-02-27T01:04:49.343Z,99860.50
2023-02-27T01:07:15.946Z,99863.03
2023-02-27T01:09:42.765Z,99859.06
2023-02-27T01:12:13.733Z,99863.59
2023-02-27T01:14:40.241Z,99863.69
2023-02-27T01:17:10.421Z,99856.09
2023-02-27T01:19:36.887Z,99859.97
2023-02-27T01:22:03.374Z,99857.38
2023-02-27T01:24:29.876Z,99861.31
2023-02-27T01:26:56.376Z,99858.09
2023-02-27T01:29:22.872Z,99855.34
2023-02-27T01:31:50.225Z,99860.63
2023-02-27T01:34:17.538Z,99864.38
2023-02-27T01:36:47.339Z,99858.00
2023-02-27T01:39:19.829Z,99849.53
2023-02-27T01:41:46.458Z,99856.22
2023-02-27T01:44:14.711Z,99845.84
2023-02-27T01:46:42.258Z,99852.31
2023-02-27T01:49:15.053Z,99846.53
2023-02-27T01:52:05.892Z,99849.22
2023-02-27T01:54:43.536Z,99845.16
2023-02-27T01:57:13.253Z,99849.44
2023-02-27T01:59:42.516Z,99856.41
2023-02-27T02:02:17.718Z,99846.75
2023-02-27T02:04:44.363Z,99856.91
2023-02-27T02:07:15.517Z,99853.41
2023-02-27T02:09:45.388Z,99853.41
2023-02-27T02:12:14.570Z,99856.00
2023-02-27T02:14:41.086Z,99862.31
2023-02-27T02:17:35.421Z,99858.69
2023-02-27T02:20:07.691Z,99847.44
2023-02-27T02:22:59.032Z,99858.41
2023-02-27T02:25:34.439Z,99853.13
2023-02-27T02:28:22.880Z,99857.94
2023-02-27T02:31:15.321Z,99856.91
2023-02-27T02:33:50.557Z,99857.94
2023-02-27T02:36:26.919Z,99856.91
2023-02-27T02:39:12.173Z,99857.72
2023-02-27T02:41:45.863Z,99862.72
2023-02-27T02:44:28.905Z,99858.50
2023-02-27T02:47:17.080Z,99853.41
2023-02-27T02:50:11.424Z,99862.31
2023-02-27T02:53:05.709Z,99859.72
2023-02-27T02:56:05.652Z,99865.91
2023-02-27T02:58:42.446Z,99866.09
2023-02-27T03:01:15.887Z,99870.66
2023-02-27T03:03:56.872Z,99869.88
2023-02-27T03:06:30.770Z,99869.19
2023-02-27T03:09:15.116Z,99866.00
2023-02-27T03:11:45.633Z,99869.69
2023-02-27T03:14:21.105Z,99871.91
2023-02-27T03:16:53.299Z,99874.06
2023-02-27T03:19:26.350Z,99874.47
2023-02-27T03:21:59.172Z,99875.56
2023-02-27T03:24:35.831Z,99873.38
2023-02-27T03:27:04.385Z,99875.44
2023-02-27T03:29:39.971Z,99882.06
2023-02-27T03:32:17.674Z,99881.66
2023-02-27T03:34:45.294Z,99881.47
2023-02-27T03:37:20.775Z,99882.34
2023-02-27T03:39:52.954Z,99884.06
2023-02-27T03:42:22.461Z,99888.25
2023-02-27T03:45:05.496Z,99886.03
2023-02-27T03:47:33.035Z,99881.84
2023-02-27T03:49:59.590Z,99879.97
2023-02-27T03:52:28.707Z,99885.63
2023-02-27T03:55:10.425Z,99878.66
2023-02-27T03:57:38.306Z,99881.84
2023-02-27T04:00:11.734Z,99878.66
2023-02-27T04:02:39.796Z,99884.34
2023-02-27T04:05:06.694Z,99892.13
2023-02-27T04:07:40.541Z,99894.09
2023-02-27T04:10:15.628Z,99889.25
2023-02-27T04:13:01.059Z,99902.31
2023-02-27T04:15:36.295Z,99899.81
2023-02-27T04:18:25.084Z,99900.09
2023-02-27T04:21:17.521Z,99903.59
2023-02-27T04:23:54.906Z,99896.84
2023-02-27T04:26:33.235Z,99895.53
2023-02-27T04:29:07.574Z,99899.53
2023-02-27T04:31:48.096Z,99909.78
2023-02-27T04:34:31.656Z,99905.47
2023-02-27T04:37:06.209Z,99914.66
2023-02-27T04:39:39.854Z,99908.06
2023-02-27T04:42:12.963Z,99921.09
2023-02-27T04:44:41.241Z,99913.84
2023-02-27T04:47:10.707Z,99915.16
2023-02-27T04:49:58.066Z,99914.94
2023-02-27T04:52:44.649Z,99905.75
2023-02-27T04:55:11.211Z,99906.16
2023-02-27T04:57:42.968Z,99914.84
2023-02-27T05:00:12.059Z,99909.16
2023-02-27T05:02:43.830Z,99910.84
2023-02-27T05:05:14.357Z,99917.34
2023-02-27T05:07:49.434Z,99912.53
2023-02-27T05:10:26.822Z,99916.13
2023-02-27T05:12:58.932Z,99913.66
2023-02-27T05:15:33.703Z,99915.94
2023-02-27T05:18:04.367Z,99917.31
2023-02-27T05:20:54.450Z,99921.00
2023-02-27T05:23:30.393Z,99913.31
2023-02-27T05:26:19.887Z,99914.63
2023-02-27T05:29:01.960Z,99919.13
2023-02-27T05:31:38.906Z,99920.91
2023-02-27T05:34:16.791Z,99915.22
2023-02-27T05:36:53.769Z,99923.78
2023-02-27T05:39:24.168Z,99923.41
2023-02-27T05:41:58.711Z,99920.41
2023-02-27T05:44:33.472Z,99919.72
2023-02-27T05:47:04.607Z,99921.25
2023-02-27T05:49:42.669Z,99918.56
2023-02-27T05:52:13.334Z,99927.56
2023-02-27T05:54:51.813Z,99929.13
2023-02-27T05:57:24.527Z,99933.13
2023-02-27T05:59:57.403Z,99930.47
2023-02-27T06:02:24.245Z,99938.13
2023-02-27T06:04:51.035Z,99938.09
2023-02-27T06:07:18.425Z,99946.13
2023-02-27T06:09:45.737Z,99945.75
2023-02-27T06:12:12.900Z,99957.13
2023-02-27T06:14:39.354Z,99962.25
2023-02-27T06:17:05.925Z,99957.38
2023-02-27T06:19:32.379Z,99962.72
2023-02-27T06:21:58.860Z,99968.41
2023-02-27T06:24:26.723Z,99971.53
2023-02-27T06:26:53.472Z,99974.25
2023-02-27T06:29:20.037Z,99978.31
2023-02-27T06:31:46.519Z,99988.69
2023-02-27T06:34:16.574Z,99984.50
2023-02-27T06:36:43.087Z,99989.09
2023-02-27T06:39:11.354Z,99991.09
2023-02-27T06:41:37.828Z,99998.59
2023-02-27T06:44:04.291Z,100001.19
2023-02-27T06:46:31.072Z,99996.41
2023-02-27T06:48:57.710Z,99999.91
2023-02-27T06:51:24.194Z,100006.09
2023-02-27T06:53:50.684Z,100003.09
2023-02-27T06:56:17.149Z,100005.53
2023-02-27T06:58:43.617Z,100008.13
2023-02-27T07:01:13.516Z,100006.16
2023-02-27T07:03:40.174Z,99996.97
2023-02-27T07:06:06.738Z,99998.28
2023-02-27T07:08:33.329Z,100005.53
2023-02-27T07:10:59.815Z,100007.03
2023-02-27T07:13:26.369Z,100009.16
2023-02-27T07:15:52.864Z,100012.84
2023-02-27T07:18:20.171Z,100003.34
2023-02-27T07:20:51.180Z,100009.44
2023-02-27T07:23:18.228Z,100012.94
2023-02-27T07:25:46.997Z,100015.72
2023-02-27T07:28:13.809Z,100020.91
2023-02-27T07:30:41.406Z,100022.94
2023-02-27T07:33:08.228Z,100014.25
2023-02-27T07:35:34.927Z,100017.13
2023-02-27T07:38:01.664Z,100016.53
2023-02-27T07:40:28.257Z,100022.91
2023-02-27T07:42:54.904Z,100020.69
2023-02-27T07:45:22.414Z,100023.78
2023-02-27T07:47:49.477Z,100029.56
2023-02-27T07:50:16.335Z,100027.84
2023-02-27T07:52:43.995Z,100027.78
2023-02-27T07:55:12.487Z,100033.16
2023-02-27T07:57:39.263Z,100037.72
2023-02-27T08:00:06.944Z,100037.56
2023-02-27T08:02:33.782Z,100046.34
2023-02-27T08:05:00.268Z,100052.53
2023-02-27T08:07:26.737Z,100053.25
2023-02-27T08:09:53.214Z,100062.91
2023-02-27T08:12:19.890Z,100058.75
2023-02-27T08:14:46.367Z,100060.38
2023-02-27T08:17:12.817Z,100069.88
2023-02-27T08:19:39.505Z,100066.47
2023-02-27T08:22:05.983Z,100072.91
2023-02-27T08:24:32.878Z,100067.03
2023-02-27T08:26:59.486Z,100078.34
2023-02-27T08:29:26.960Z,100074.22
2023-02-27T08:31:53.655Z,100069.81
2023-02-27T08:34:20.212Z,100073.59
2023-02-27T08:36:46.768Z,100069.94
2023-02-27T08:39:14.399Z,100078.16
2023-02-27T08:41:40.914Z,100078.06
2023-02-27T08:44:07.353Z,100079.94
2023-02-27T08:46:33.944Z,100071.81
2023-02-27T08:49:00.403Z,100073.78
2023-02-27T08:51:27.238Z,100070.03
2023-02-27T08:53:58.717Z,100071.44
2023-02-27T08:56:27.884Z,100068.16
2023-02-27T08:58:55.126Z,100069.13
2023-02-27T09:01:28.431Z,100072.53
2023-02-27T09:03:55.564Z,100071.53
2023-02-27T09:06:23.240Z,100067.44
2023-02-27T09:08:50.635Z,100071.75
2023-02-27T09:11:17.358Z,100062.78
2023-02-27T09:13:43.821Z,100064.66
2023-02-27T09:16:10.439Z,100058.19
2023-02-27T09:18:36.890Z,100059.22
2023-02-27T09:21:03.670Z,100056.69
2023-02-27T09:23:30.267Z,100055.88
2023-02-27T09:25:56.753Z,100059.56
2023-02-27T09:28:23.238Z,100059.03
2023-02-27T09:30:49.795Z,100057.59
2023-02-27T09:33:16.378Z,100049.34
2023-02-27T09:35:42.868Z,100054.97
2023-02-27T09:38:09.401Z,100053.91
2023-02-27T09:40:41.720Z,100052.44
2023-02-27T09:43:15.604Z,100051.81
2023-02-27T09:45:42.982Z,100052.13
2023-02-27T09:48:24.441Z,100051.53
2023-02-27T09:50:52.636Z,100049.94
2023-02-27T09:53:31.122Z,100048.63
2023-02-27T09:56:07.042Z,100056.19
2023-02-27T09:58:51.384Z,100057.19
2023-02-27T10:01:30.936Z,100050.75
2023-02-27T10:04:26.345Z,100055.88
2023-02-27T10:07:39.297Z,100065.13
2023-02-27T10:10:35.123Z,100059.09
2023-02-27T10:13:19.980Z,100065.16
2023-02-27T10:15:49.757Z,100059.41
2023-02-27T10:18:28.264Z,100060.72
2023-02-27T10:21:18.613Z,100057.22
2023-02-27T10:23:51.355Z,100052.16
2023-02-27T10:26:27.539Z,100060.00
2023-02-27T10:28:54.242Z,100057.84
2023-02-27T10:31:25.890Z,100061.53
2023-02-27T10:33:53.154Z,100064.97
2023-02-27T10:36:33.077Z,100066.59
2023-02-27T10:39:16.642Z,100063.25
2023-02-27T10:41:44.318Z,100069.34
2023-02-27T10:44:16.361Z,100069.53
2023-02-27T10:46:43.146Z,100070.38
2023-02-27T10:49:19.399Z,100070.28
2023-02-27T10:51:47.749Z,100071.53
2023-02-27T10:54:25.461Z,100069.75
2023-02-27T10:56:58.140Z,100062.91
2023-02-27T10:59:33.719Z,100059.34
2023-02-27T11:02:26.587Z,100058.97
2023-02-27T11:04:55.502Z,100057.38
2023-02-27T11:07:50.780Z,100063.34
2023-02-27T11:10:21.217Z,100067.00
2023-02-27T11:13:23.312Z,100057.47
2023-02-27T11:16:10.600Z,100061.88
2023-02-27T11:18:39.837Z,100054.03
2023-02-27T11:21:20.961Z,100054.78
2023-02-27T11:24:01.958Z,100056.66
2023-02-27T11:26:40.274Z,100058.88
2023-02-27T11:29:18.245Z,100045.91
2023-02-27T11:32:04.956Z,100047.84
2023-02-27T11:34:38.945Z,100048.38
2023-02-27T11:37:28.354Z,100053.13
2023-02-27T11:40:16.539Z,100056.53
2023-02-27T11:42:50.824Z,100059.59
2023-02-27T11:46:11.882Z,100053.06
2023-02-27T11:48:19.661Z,100051.50
2023-02-27T11:50:56.830Z,100042.41
2023-02-27T11:53:53.182Z,100048.94
2023-02-27T11:56:28.236Z,100048.84
2023-02-27T11:59:14.894Z,100045.75
2023-02-27T12:01:53.734Z,100043.22
2023-02-27T12:04:34.189Z,100046.06
2023-02-27T12:07:12.448Z,100051.50
2023-02-27T12:10:10.904Z,100048.59
2023-02-27T12:12:52.017Z,100047.88
2023-02-27T12:15:44.662Z,100043.09
2023-02-27T12:18:11.130Z,100028.34
2023-02-27T12:20:52.898Z,100032.19
2023-02-27T12:23:26.562Z,100035.03
2023-02-27T12:26:01.471Z,100026.19
2023-02-27T12:28:37.320Z,100021.19
2023-02-27T12:31:29.086Z,100021.59
2023-02-27T12:34:29.508Z,100017.88
2023-02-27T12:37:03.814Z,100020.13
2023-02-27T12:39:32.105Z,100025.09
2023-02-27T12:42:25.181Z,100022.56
2023-02-27T12:45:06.857Z,100021.59
2023-02-27T12:47:37.233Z,100028.78
2023-02-27T12:50:16.901Z,100030.28
2023-02-27T12:52:50.907Z,100020.88
2023-02-27T12:55:26.707Z,100033.25
2023-02-27T12:58:25.024Z,100023.16
2023-02-27T13:01:09.385Z,100036.25
2023-02-27T13:03:42.499Z,100043.09
2023-02-27T13:06:37.357Z,100042.69
2023-02-27T13:09:15.878Z,100038.81
2023-02-27T13:11:54.023Z,100042.00
2023-02-27T13:14:29.694Z,100040.69
2023-02-27T13:17:07.601Z,100038.06
2023-02-27T13:19:42.725Z,100041.78
2023-02-27T13:22:18.950Z,100047.84
2023-02-27T13:24:51.617Z,100041.50
2023-02-27T13:27:36.531Z,100055.38
2023-02-27T13:30:02.930Z,100050.88
2023-02-27T13:32:47.356Z,100047.22
2023-02-27T13:35:29.970Z,100046.78
2023-02-27T13:38:05.276Z,100046.19
2023-02-27T13:40:36.471Z,100049.41
2023-02-27T13:43:24.648Z,100040.81
2023-02-27T13:46:23.182Z,100037.91
2023-02-27T13:48:54.639Z,100038.00
2023-02-27T13:51:36.478Z,100044.03
2023-02-27T13:54:25.019Z,100048.03
2023-02-27T13:57:03.291Z,100050.78
2023-02-27T13:59:54.618Z,100038.56
2023-02-27T14:02:56.766Z,100036.78
2023-02-27T14:05:30.228Z,100037.66
2023-02-27T14:08:04.095Z,100036.22
2023-02-27T14:10:31.954Z,100037.25
2023-02-27T14:12:59.567Z,100040.53
2023-02-27T14:15:26.451Z,100041.84
2023-02-27T14:18:13.933Z,100046.03
2023-02-27T14:20:44.398Z,100041.44
2023-02-27T14:23:16.937Z,100040.56
2023-02-27T14:25:49.570Z,100044.06
2023-02-27T14:28:37.964Z,100034.69
2023-02-27T14:31:08.767Z,100039.09
2023-02-27T14:33:48.475Z,100036.69
2023-02-27T14:36:24.600Z,100033.50
2023-02-27T14:38:55.277Z,100043.84
2023-02-27T14:41:31.002Z,100043.78
2023-02-27T14:43:58.697Z,100042.31
2023-02-27T14:46:29.464Z,100038.06
2023-02-27T14:48:59.323Z,100039.03
2023-02-27T14:51:26.846Z,100035.75
2023-02-27T14:54:04.487Z,100046.19
2023-02-27T14:56:31.744Z,100038.22
2023-02-27T14:59:04.232Z,100045.16
2023-02-27T15:01:35.778Z,100045.09
2023-02-27T15:04:04.657Z,100051.28
2023-02-27T15:06:40.935Z,100046.06
2023-02-27T15:09:08.488Z,100044.13
2023-02-27T15:11:41.187Z,100041.44
2023-02-27T15:14:08.800Z,100045.56
2023-02-27T15:16:38.132Z,100036.78
2023-02-27T15:19:39.986Z,100035.13
2023-02-27T15:22:21.360Z,100049.16
2023-02-27T15:24:52.673Z,100042.88
2023-02-27T15:27:22.658Z,100043.78
2023-02-27T15:29:59.862Z,100043.94
2023-02-27T15:32:42.623Z,100049.09
2023-02-27T15:35:26.894Z,100051.53
2023-02-27T15:37:59.409Z,100054.09
2023-02-27T15:40:32.651Z,100048.72
2023-02-27T15:43:00.577Z,100046.09
2023-02-27T15:45:31.351Z,100043.31
2023-02-27T15:47:57.992Z,100053.69
2023-02-27T15:50:28.632Z,100054.50
2023-02-27T15:53:03.079Z,100050.03
2023-02-27T15:55:34.044Z,100061.34
2023-02-27T15:58:03.571Z,100060.47
2023-02-27T16:00:31.878Z,100064.03
2023-02-27T16:03:02.024Z,100058.81
2023-02-27T16:05:36.108Z,100058.69
2023-02-27T16:08:05.374Z,100058.53
2023-02-27T16:10:40.487Z,100064.56
2023-02-27T16:13:25.304Z,100061.78
2023-02-27T16:16:21.047Z,100061.63
2023-02-27T16:18:51.924Z,100065.06
2023-02-27T16:21:20.585Z,100075.50
2023-02-27T16:23:47.456Z,100071.91
2023-02-27T16:26:31.285Z,100073.63
2023-02-27T16:29:15.831Z,100075.25
2023-02-27T16:31:54.570Z,100081.31
2023-02-27T16:34:44.549Z,100086.41
2023-02-27T16:37:33.973Z,100087.22
2023-02-27T16:40:00.548Z,100090.72
2023-02-27T16:42:27.364Z,100096.84
2023-02-27T16:44:53.825Z,100093.13
2023-02-27T16:47:20.325Z,100090.50
2023-02-27T16:49:47.486Z,100091.47
2023-02-27T16:52:13.970Z,100097.50
2023-02-27T16:54:43.531Z,100093.94
2023-02-27T16:57:10.840Z,100103.19
2023-02-27T16:59:40.436Z,100110.06
2023-02-27T17:02:13.120Z,100109.91
2023-02-27T17:04:39.854Z,100110.63
2023-02-27T17:07:06.939Z,100108.78
2023-02-27T17:09:33.548Z,100106.88
2023-02-27T17:12:00.028Z,100118.84
2023-02-27T17:14:29.231Z,100115.34
2023-02-27T17:16:55.756Z,100113.47
2023-02-27T17:19:22.522Z,100119.31
2023-02-27T17:21:49.183Z,100116.72
2023-02-27T17:24:18.456Z,100119.97
2023-02-27T17:26:44.913Z,100125.94
2023-02-27T17:29:12.149Z,100126.81
2023-02-27T17:31:38.630Z,100118.84
2023-02-27T17:34:05.726Z,100134.41
2023-02-27T17:36:35.380Z,100136.81
2023-02-27T17:39:02.129Z,100134.13
2023-02-27T17:41:30.185Z,100133.06
2023-02-27T17:43:58.494Z,100134.78
2023-02-27T17:46:27.143Z,100131.22
2023-02-27T17:48:56.120Z,100130.47
2023-02-27T17:51:23.036Z,100132.25
2023-02-27T17:53:49.584Z,100130.56
2023-02-27T17:56:16.056Z,100134.78
2023-02-27T17:58:45.434Z,100136.56
2023-02-27T18:01:16.918Z,100134.63
2023-02-27T18:03:46.109Z,100140.72
2023-02-27T18:06:13.081Z,100144.31
2023-02-27T18:08:39.598Z,100148.63
2023-02-27T18:11:13.863Z,100136.56
2023-02-27T18:13:41.395Z,100147.91
2023-02-27T18:16:08.459Z,100153.13
2023-02-27T18:18:40.422Z,100150.44
2023-02-27T18:21:12.759Z,100148.47
2023-02-27T18:23:39.545Z,100145.88
2023-02-27T18:26:07.157Z,100143.06
2023-02-27T18:28:35.010Z,100135.25
2023-02-27T18:31:01.563Z,100135.31
2023-02-27T18:33:28.102Z,100143.06
2023-02-27T18:35:54.669Z,100140.53
2023-02-27T18:38:21.209Z,100136.94
2023-02-27T18:40:47.743Z,100153.50
2023-02-27T18:43:14.236Z,100145.06
2023-02-27T18:45:41.225Z,100138.03
2023-02-27T18:48:09.937Z,100137.03
2023-02-27T18:50:36.456Z,100145.44
2023-02-27T18:53:03.210Z,100143.47
2023-02-27T18:55:29.644Z,100134.72
2023-02-27T18:57:56.206Z,100135.00
2023-02-27T19:00:24.150Z,100133.13
2023-02-27T19:02:51.051Z,100142.53
2023-02-27T19:05:18.053Z,100148.56
2023-02-27T19:07:44.594Z,100145.97
2023-02-27T19:10:11.721Z,100145.97
2023-02-27T19:12:38.346Z,100142.47
2023-02-27T19:15:05.369Z,100142.53
2023-02-27T19:17:32.451Z,100149.59
2023-02-27T19:19:59.623Z,100147.75
2023-02-27T19:22:30.387Z,100142.47
2023-02-27T19:24:57.310Z,100142.53
2023-02-27T19:27:23.934Z,100135.53
2023-02-27T19:29:50.983Z,100144.00
2023-02-27T19:32:17.693Z,100145.72
2023-02-27T19:34:44.342Z,100146.53
2023-02-27T19:37:10.817Z,100149.22
2023-02-27T19:39:37.315Z,100148.25
2023-02-27T19:42:03.874Z,100143.84
2023-02-27T19:44:30.357Z,100143.03
2023-02-27T19:46:56.867Z,100148.41
2023-02-27T19:49:23.559Z,100151.00
2023-02-27T19:51:50.112Z,100149.88
2023-02-27T19:54:16.682Z,100154.78
2023-02-27T19:56:43.481Z,100150.69
2023-02-27T19:59:12.310Z,100152.47
2023-02-27T20:01:39.489Z,100152.09
2023-02-27T20:04:07.820Z,100146.00
2023-02-27T20:06:43.904Z,100154.63
2023-02-27T20:09:15.927Z,100155.53
2023-02-27T20:11:43.935Z,100148.34
2023-02-27T20:14:11.403Z,100150.88
2023-02-27T20:16:38.215Z,100151.94
2023-02-27T20:19:06.339Z,100158.84
2023-02-27T20:21:34.160Z,100155.53
2023-02-27T20:24:04.613Z,100145.91
2023-02-27T20:26:43.156Z,100150.88
2023-02-27T20:29:19.346Z,100150.16
2023-02-27T20:31:47.802Z,100150.16
2023-02-27T20:34:21.871Z,100147.47
2023-02-27T20:36:53.812Z,100152.47
2023-02-27T20:39:20.937Z,100154.09
2023-02-27T20:41:47.760Z,100151.41
2023-02-27T20:44:17.085Z,100153.56
2023-02-27T20:46:48.144Z,100157.16
2023-02-27T20:49:16.585Z,100147.53
2023-02-27T20:51:43.402Z,100152.66
2023-02-27T20:54:14.156Z,100150.66
2023-02-27T20:56:42.039Z,100148.16
2023-02-27T20:59:16.453Z,100156.78
2023-02-27T21:01:51.182Z,100153.19
2023-02-27T21:04:46.193Z,100151.06
2023-02-27T21:07:14.724Z,100158.41
2023-02-27T21:09:41.467Z,100153.38
2023-02-27T21:12:09.163Z,100163.63
2023-02-27T21:14:35.874Z,100160.41
2023-02-27T21:17:02.430Z,100161.81
2023-02-27T21:19:30.725Z,100154.81
2023-02-27T21:21:59.768Z,100153.91
2023-02-27T21:24:26.325Z,100152.56
2023-02-27T21:26:52.853Z,100163.81
2023-02-27T21:29:21.506Z,100163.88
2023-02-27T21:31:49.653Z,100164.19
2023-02-27T21:34:22.704Z,100162.38
2023-02-27T21:36:50.152Z,100164.34
2023-02-27T21:39:19.871Z,100169.38
2023-02-27T21:41:49.738Z,100170.13
2023-02-27T21:44:19.486Z,100177.13
2023-02-27T21:46:46.261Z,100173.31
2023-02-27T21:49:22.532Z,100167.13
2023-02-27T21:51:49.381Z,100174.88
2023-02-27T21:54:17.342Z,100165.34
2023-02-27T21:56:45.597Z,100163.81
2023-02-27T21:59:13.055Z,100158.59
2023-02-27T22:01:39.706Z,100164.53
2023-02-27T22:04:07.304Z,100163.53
2023-02-27T22:06:37.142Z,100165.97
2023-02-27T22:09:05.572Z,100160.22
2023-02-27T22:11:34.154Z,100164.16
2023-02-27T22:14:01.034Z,100159.66
2023-02-27T22:16:27.820Z,100161.47
2023-02-27T22:18:54.311Z,100159.66
2023-02-27T22:21:24.096Z,100163.09
2023-02-27T22:23:50.926Z,100156.16
2023-02-27T22:26:24.166Z,100169.91
2023-02-27T22:28:52.336Z,100175.84
2023-02-27T22:31:21.689Z,100170.00
2023-02-27T22:33:50.435Z,100171.53
2023-02-27T22:36:22.467Z,100170.09
2023-02-27T22:38:49.161Z,100170.25
2023-02-27T22:41:21.425Z,100168.13
2023-02-27T22:43:48.090Z,100176.53
2023-02-27T22:46:17.816Z,100178.97
2023-02-27T22:48:44.653Z,100179.13
2023-02-27T22:51:14.338Z,100178.53
2023-02-27T22:53:46.164Z,100177.56
2023-02-27T22:56:15.489Z,100187.84
2023-02-27T22:58:43.741Z,100188.91
2023-02-27T23:01:26.205Z,100195.94
2023-02-27T23:03:55.783Z,100193.50
2023-02-27T23:06:25.457Z,100203.28
2023-02-27T23:08:55.341Z,100205.91
2023-02-27T23:11:21.959Z,100202.31
2023-02-27T23:13:48.750Z,100197.09
2023-02-27T23:16:15.435Z,100207.94
2023-02-27T23:18:54.322Z,100209.47
2023-02-27T23:21:27.298Z,100215.06
2023-02-27T23:23:59.837Z,100207.41
2023-02-27T23:26:29.220Z,100217.44
2023-02-27T23:28:56.570Z,100215.06
2023-02-27T23:31:23.229Z,100214.25
2023-02-27T23:33:50.201Z,100218.25
2023-02-27T23:36:17.714Z,100220.28
2023-02-27T23:38:46.523Z,100214.41
2023-02-27T23:41:16.790Z,100213.25
2023-02-27T23:43:47.552Z,100213.53
2023-02-27T23:46:16.018Z,100209.03
2023-02-27T23:48:43.389Z,100215.28
2023-02-27T23:51:11.137Z,100215.44
2023-02-27T23:53:39.261Z,100216.16
2023-02-27T23:56:27.014Z,100219.75
2023-02-27T23:58:58.871Z,100216.16
